sensor_id;sensor_type;location;lat;lon;timestamp;pressure;altitude;pressure_sealevel;temperature
20848;BMP180;10584;50.854;12.902;2024-01-16T00:02:16;96653.00;;;-1.20
20848;BMP180;10584;50.854;12.902;2024-01-16T00:07:39;96659.00;;;-1.20
20848;BMP180;10584;50.854;12.902;2024-01-16T00:13:01;96668.00;;;-1.20
20848;BMP180;10584;50.854;12.902;2024-01-16T00:18:23;96672.00;;;-1.10
20848;BMP180;10584;50.854;12.902;2024-01-16T00:23:45;96683.00;;;-1.20
20848;BMP180;10584;50.854;12.902;2024-01-16T00:29:06;96681.00;;;-1.10
20848;BMP180;10584;50.854;12.902;2024-01-16T00:34:28;96673.00;;;-1.10
20848;BMP180;10584;50.854;12.902;2024-01-16T00:39:50;96692.00;;;-1.10
20848;BMP180;10584;50.854;12.902;2024-01-16T00:45:11;96687.00;;;-1.10
20848;BMP180;10584;50.854;12.902;2024-01-16T00:50:33;96682.00;;;-1.00
20848;BMP180;10584;50.854;12.902;2024-01-16T00:55:54;96694.00;;;-1.10
20848;BMP180;10584;50.854;12.902;2024-01-16T01:01:16;96692.00;;;-1.00
20848;BMP180;10584;50.854;12.902;2024-01-16T01:06:37;96704.00;;;-1.00
20848;BMP180;10584;50.854;12.902;2024-01-16T01:11:59;96727.00;;;-0.90
20848;BMP180;10584;50.854;12.902;2024-01-16T01:17:21;96734.00;;;-0.90
20848;BMP180;10584;50.854;12.902;2024-01-16T01:22:44;96747.00;;;-0.80
20848;BMP180;10584;50.854;12.902;2024-01-16T01:28:05;96744.00;;;-0.80
20848;BMP180;10584;50.854;12.902;2024-01-16T01:33:27;96766.00;;;-0.80
20848;BMP180;10584;50.854;12.902;2024-01-16T01:38:48;96767.00;;;-0.60
20848;BMP180;10584;50.854;12.902;2024-01-16T01:44:13;96768.00;;;-0.70
20848;BMP180;10584;50.854;12.902;2024-01-16T01:49:38;96774.00;;;-0.60
20848;BMP180;10584;50.854;12.902;2024-01-16T01:55:01;96774.00;;;-0.60
20848;BMP180;10584;50.854;12.902;2024-01-16T02:00:23;96781.00;;;-0.60
20848;BMP180;10584;50.854;12.902;2024-01-16T02:05:45;96790.00;;;-0.60
20848;BMP180;10584;50.854;12.902;2024-01-16T02:11:07;96784.00;;;-0.50
20848;BMP180;10584;50.854;12.902;2024-01-16T02:16:38;96794.00;;;-0.60
20848;BMP180;10584;50.854;12.902;2024-01-16T02:22:00;96806.00;;;-0.50
20848;BMP180;10584;50.854;12.902;2024-01-16T02:27:25;96814.00;;;-0.50
20848;BMP180;10584;50.854;12.902;2024-01-16T02:32:46;96820.00;;;-0.50
20848;BMP180;10584;50.854;12.902;2024-01-16T02:38:08;96822.00;;;-0.50
20848;BMP180;10584;50.854;12.902;2024-01-16T02:43:30;96821.00;;;-0.40
20848;BMP180;10584;50.854;12.902;2024-01-16T02:48:51;96833.00;;;-0.30
20848;BMP180;10584;50.854;12.902;2024-01-16T02:54:13;96839.00;;;-0.40
20848;BMP180;10584;50.854;12.902;2024-01-16T02:59:35;96839.00;;;-0.50
20848;BMP180;10584;50.854;12.902;2024-01-16T03:04:57;96838.00;;;-0.40
20848;BMP180;10584;50.854;12.902;2024-01-16T03:10:18;96846.00;;;-0.40
20848;BMP180;10584;50.854;12.902;2024-01-16T03:15:40;96847.00;;;-0.30
20848;BMP180;10584;50.854;12.902;2024-01-16T03:21:02;96843.00;;;-0.30
20848;BMP180;10584;50.854;12.902;2024-01-16T03:26:24;96864.00;;;-0.40
20848;BMP180;10584;50.854;12.902;2024-01-16T03:31:45;96861.00;;;-0.40
20848;BMP180;10584;50.854;12.902;2024-01-16T03:37:07;96875.00;;;-0.40
20848;BMP180;10584;50.854;12.902;2024-01-16T03:42:29;96881.00;;;-0.30
20848;BMP180;10584;50.854;12.902;2024-01-16T03:47:50;96878.00;;;-0.40
20848;BMP180;10584;50.854;12.902;2024-01-16T03:53:12;96885.00;;;-0.30
20848;BMP180;10584;50.854;12.902;2024-01-16T03:58:34;96889.00;;;-0.30
20848;BMP180;10584;50.854;12.902;2024-01-16T04:03:56;96878.00;;;-0.40
20848;BMP180;10584;50.854;12.902;2024-01-16T04:09:17;96906.00;;;-0.40
20848;BMP180;10584;50.854;12.902;2024-01-16T04:14:39;96902.00;;;-0.30
20848;BMP180;10584;50.854;12.902;2024-01-16T04:20:01;96909.00;;;-0.40
20848;BMP180;10584;50.854;12.902;2024-01-16T04:25:23;96910.00;;;-0.40
20848;BMP180;10584;50.854;12.902;2024-01-16T04:30:44;96918.00;;;-0.30
20848;BMP180;10584;50.854;12.902;2024-01-16T04:36:09;96914.00;;;-0.30
20848;BMP180;10584;50.854;12.902;2024-01-16T04:41:31;96927.00;;;-0.30
20848;BMP180;10584;50.854;12.902;2024-01-16T04:46:54;96945.00;;;-0.30
20848;BMP180;10584;50.854;12.902;2024-01-16T04:52:18;96943.00;;;-0.20
20848;BMP180;10584;50.854;12.902;2024-01-16T04:57:40;96953.00;;;-0.30
20848;BMP180;10584;50.854;12.902;2024-01-16T05:03:04;96958.00;;;-0.40
20848;BMP180;10584;50.854;12.902;2024-01-16T05:08:26;96943.00;;;-0.60
20848;BMP180;10584;50.854;12.902;2024-01-16T05:13:48;96962.00;;;-0.60
20848;BMP180;10584;50.854;12.902;2024-01-16T05:19:09;96964.00;;;-0.60
20848;BMP180;10584;50.854;12.902;2024-01-16T05:24:31;96971.00;;;-0.60
20848;BMP180;10584;50.854;12.902;2024-01-16T05:29:52;96988.00;;;-0.70
20848;BMP180;10584;50.854;12.902;2024-01-16T05:35:14;96981.00;;;-0.70
20848;BMP180;10584;50.854;12.902;2024-01-16T05:40:36;96999.00;;;-0.80
20848;BMP180;10584;50.854;12.902;2024-01-16T05:45:57;96993.00;;;-0.80
20848;BMP180;10584;50.854;12.902;2024-01-16T05:51:19;97007.00;;;-0.80
20848;BMP180;10584;50.854;12.902;2024-01-16T05:56:41;96999.00;;;-0.90
20848;BMP180;10584;50.854;12.902;2024-01-16T06:02:02;97010.00;;;-0.90
20848;BMP180;10584;50.854;12.902;2024-01-16T06:07:24;97004.00;;;-0.90
20848;BMP180;10584;50.854;12.902;2024-01-16T06:12:46;97002.00;;;-1.00
20848;BMP180;10584;50.854;12.902;2024-01-16T06:18:07;97014.00;;;-0.90
20848;BMP180;10584;50.854;12.902;2024-01-16T06:23:30;97006.00;;;-1.00
20848;BMP180;10584;50.854;12.902;2024-01-16T06:28:51;97026.00;;;-1.00
20848;BMP180;10584;50.854;12.902;2024-01-16T06:34:13;97016.00;;;-1.00
20848;BMP180;10584;50.854;12.902;2024-01-16T06:39:35;97026.00;;;-1.10
20848;BMP180;10584;50.854;12.902;2024-01-16T06:44:57;97024.00;;;-1.10
20848;BMP180;10584;50.854;12.902;2024-01-16T06:50:19;97017.00;;;-1.20
20848;BMP180;10584;50.854;12.902;2024-01-16T06:55:40;97020.00;;;-1.20
20848;BMP180;10584;50.854;12.902;2024-01-16T07:01:03;97037.00;;;-1.20
20848;BMP180;10584;50.854;12.902;2024-01-16T07:06:25;97042.00;;;-1.10
20848;BMP180;10584;50.854;12.902;2024-01-16T07:11:47;97054.00;;;-1.20
20848;BMP180;10584;50.854;12.902;2024-01-16T07:17:09;97067.00;;;-1.30
20848;BMP180;10584;50.854;12.902;2024-01-16T07:22:31;97076.00;;;-1.40
20848;BMP180;10584;50.854;12.902;2024-01-16T07:27:52;97079.00;;;-1.50
20848;BMP180;10584;50.854;12.902;2024-01-16T07:33:14;97094.00;;;-1.50
20848;BMP180;10584;50.854;12.902;2024-01-16T07:38:36;97101.00;;;-1.60
20848;BMP180;10584;50.854;12.902;2024-01-16T07:43:57;97097.00;;;-1.50
20848;BMP180;10584;50.854;12.902;2024-01-16T07:49:19;97104.00;;;-1.70
20848;BMP180;10584;50.854;12.902;2024-01-16T07:54:40;97119.00;;;-1.50
20848;BMP180;10584;50.854;12.902;2024-01-16T08:00:02;97126.00;;;-1.70
20848;BMP180;10584;50.854;12.902;2024-01-16T08:05:25;97108.00;;;-1.70
20848;BMP180;10584;50.854;12.902;2024-01-16T08:10:49;97128.00;;;-1.50
20848;BMP180;10584;50.854;12.902;2024-01-16T08:16:10;97118.00;;;-1.40
20848;BMP180;10584;50.854;12.902;2024-01-16T08:21:32;97132.00;;;-1.30
20848;BMP180;10584;50.854;12.902;2024-01-16T08:26:54;97137.00;;;-1.20
20848;BMP180;10584;50.854;12.902;2024-01-16T08:32:21;97143.00;;;-1.20
20848;BMP180;10584;50.854;12.902;2024-01-16T08:37:43;97139.00;;;-1.10
20848;BMP180;10584;50.854;12.902;2024-01-16T08:43:05;97147.00;;;-1.00
20848;BMP180;10584;50.854;12.902;2024-01-16T08:48:26;97151.00;;;-1.00
20848;BMP180;10584;50.854;12.902;2024-01-16T08:53:48;97164.00;;;-0.90
20848;BMP180;10584;50.854;12.902;2024-01-16T08:59:10;97157.00;;;-0.90
20848;BMP180;10584;50.854;12.902;2024-01-16T09:04:31;97168.00;;;-0.90
20848;BMP180;10584;50.854;12.902;2024-01-16T09:09:53;97182.00;;;-0.80
20848;BMP180;10584;50.854;12.902;2024-01-16T09:15:15;97175.00;;;-0.70
20848;BMP180;10584;50.854;12.902;2024-01-16T09:20:36;97184.00;;;-0.60
20848;BMP180;10584;50.854;12.902;2024-01-16T09:25:58;97194.00;;;-0.70
20848;BMP180;10584;50.854;12.902;2024-01-16T09:31:19;97189.00;;;-0.60
20848;BMP180;10584;50.854;12.902;2024-01-16T09:36:41;97187.00;;;-0.70
20848;BMP180;10584;50.854;12.902;2024-01-16T09:42:03;97190.00;;;-0.50
20848;BMP180;10584;50.854;12.902;2024-01-16T09:47:25;97185.00;;;-0.50
20848;BMP180;10584;50.854;12.902;2024-01-16T09:52:47;97187.00;;;-0.50
20848;BMP180;10584;50.854;12.902;2024-01-16T09:58:11;97184.00;;;-0.40
20848;BMP180;10584;50.854;12.902;2024-01-16T10:03:35;97186.00;;;-0.10
20848;BMP180;10584;50.854;12.902;2024-01-16T10:08:58;97187.00;;;-0.10
20848;BMP180;10584;50.854;12.902;2024-01-16T10:14:20;97182.00;;;-0.20
20848;BMP180;10584;50.854;12.902;2024-01-16T10:19:52;97183.00;;;0.00
20848;BMP180;10584;50.854;12.902;2024-01-16T10:25:14;97189.00;;;-0.10
20848;BMP180;10584;50.854;12.902;2024-01-16T10:30:41;97189.00;;;0.00
20848;BMP180;10584;50.854;12.902;2024-01-16T10:36:09;97182.00;;;0.10
20848;BMP180;10584;50.854;12.902;2024-01-16T10:41:33;97178.00;;;0.40
20848;BMP180;10584;50.854;12.902;2024-01-16T10:47:11;97178.00;;;0.50
20848;BMP180;10584;50.854;12.902;2024-01-16T10:52:34;97176.00;;;0.50
20848;BMP180;10584;50.854;12.902;2024-01-16T10:57:58;97170.00;;;0.50
20848;BMP180;10584;50.854;12.902;2024-01-16T11:08:49;97188.00;;;0.60
20848;BMP180;10584;50.854;12.902;2024-01-16T11:14:16;97183.00;;;0.50
20848;BMP180;10584;50.854;12.902;2024-01-16T11:19:38;97183.00;;;0.40
20848;BMP180;10584;50.854;12.902;2024-01-16T11:25:19;97176.00;;;0.50
20848;BMP180;10584;50.854;12.902;2024-01-16T11:30:43;97174.00;;;0.60
20848;BMP180;10584;50.854;12.902;2024-01-16T11:36:05;97162.00;;;0.60
20848;BMP180;10584;50.854;12.902;2024-01-16T11:41:50;97156.00;;;0.80
20848;BMP180;10584;50.854;12.902;2024-01-16T11:47:17;97164.00;;;1.00
20848;BMP180;10584;50.854;12.902;2024-01-16T11:52:44;97173.00;;;1.00
20848;BMP180;10584;50.854;12.902;2024-01-16T12:03:39;97156.00;;;0.90
20848;BMP180;10584;50.854;12.902;2024-01-16T12:09:30;97164.00;;;0.80
20848;BMP180;10584;50.854;12.902;2024-01-16T12:14:52;97163.00;;;1.00
20848;BMP180;10584;50.854;12.902;2024-01-16T12:20:19;97162.00;;;0.90
20848;BMP180;10584;50.854;12.902;2024-01-16T12:25:41;97162.00;;;0.80
20848;BMP180;10584;50.854;12.902;2024-01-16T12:31:23;97152.00;;;0.80
20848;BMP180;10584;50.854;12.902;2024-01-16T12:36:45;97146.00;;;0.70
20848;BMP180;10584;50.854;12.902;2024-01-16T12:42:08;97142.00;;;0.80
20848;BMP180;10584;50.854;12.902;2024-01-16T12:47:31;97137.00;;;0.60
20848;BMP180;10584;50.854;12.902;2024-01-16T12:53:10;97142.00;;;0.80
20848;BMP180;10584;50.854;12.902;2024-01-16T12:58:35;97123.00;;;0.80
20848;BMP180;10584;50.854;12.902;2024-01-16T13:03:57;97118.00;;;0.70
20848;BMP180;10584;50.854;12.902;2024-01-16T13:09:24;97117.00;;;0.80
20848;BMP180;10584;50.854;12.902;2024-01-16T13:14:47;97127.00;;;0.80
20848;BMP180;10584;50.854;12.902;2024-01-16T13:20:09;97121.00;;;0.70
20848;BMP180;10584;50.854;12.902;2024-01-16T13:25:32;97134.00;;;0.80
20848;BMP180;10584;50.854;12.902;2024-01-16T13:30:53;97143.00;;;0.60
20848;BMP180;10584;50.854;12.902;2024-01-16T13:36:15;97133.00;;;0.60
20848;BMP180;10584;50.854;12.902;2024-01-16T13:41:44;97133.00;;;0.50
20848;BMP180;10584;50.854;12.902;2024-01-16T13:47:05;97144.00;;;0.80
20848;BMP180;10584;50.854;12.902;2024-01-16T13:52:35;97138.00;;;0.80
20848;BMP180;10584;50.854;12.902;2024-01-16T13:57:57;97136.00;;;0.80
20848;BMP180;10584;50.854;12.902;2024-01-16T14:03:20;97126.00;;;1.00
20848;BMP180;10584;50.854;12.902;2024-01-16T14:08:42;97127.00;;;0.90
20848;BMP180;10584;50.854;12.902;2024-01-16T14:14:04;97134.00;;;0.70
20848;BMP180;10584;50.854;12.902;2024-01-16T14:19:26;97137.00;;;0.80
20848;BMP180;10584;50.854;12.902;2024-01-16T14:24:48;97129.00;;;0.70
20848;BMP180;10584;50.854;12.902;2024-01-16T14:30:14;97132.00;;;0.80
20848;BMP180;10584;50.854;12.902;2024-01-16T14:35:36;97126.00;;;0.80
20848;BMP180;10584;50.854;12.902;2024-01-16T14:40:59;97112.00;;;0.70
20848;BMP180;10584;50.854;12.902;2024-01-16T14:46:20;97116.00;;;0.70
20848;BMP180;10584;50.854;12.902;2024-01-16T14:51:44;97104.00;;;0.40
20848;BMP180;10584;50.854;12.902;2024-01-16T14:57:06;97121.00;;;0.50
20848;BMP180;10584;50.854;12.902;2024-01-16T15:02:28;97130.00;;;0.30
20848;BMP180;10584;50.854;12.902;2024-01-16T15:07:50;97132.00;;;0.30
20848;BMP180;10584;50.854;12.902;2024-01-16T15:13:15;97131.00;;;0.30
20848;BMP180;10584;50.854;12.902;2024-01-16T15:18:37;97132.00;;;0.30
20848;BMP180;10584;50.854;12.902;2024-01-16T15:23:59;97134.00;;;0.10
20848;BMP180;10584;50.854;12.902;2024-01-16T15:29:20;97133.00;;;0.00
20848;BMP180;10584;50.854;12.902;2024-01-16T15:34:42;97135.00;;;0.00
20848;BMP180;10584;50.854;12.902;2024-01-16T15:40:04;97134.00;;;0.00
20848;BMP180;10584;50.854;12.902;2024-01-16T15:45:28;97133.00;;;-0.20
20848;BMP180;10584;50.854;12.902;2024-01-16T15:50:49;97137.00;;;-0.20
20848;BMP180;10584;50.854;12.902;2024-01-16T15:56:33;97143.00;;;-0.20
20848;BMP180;10584;50.854;12.902;2024-01-16T16:01:55;97143.00;;;-0.30
20848;BMP180;10584;50.854;12.902;2024-01-16T16:07:17;97134.00;;;-0.30
20848;BMP180;10584;50.854;12.902;2024-01-16T16:12:40;97147.00;;;-0.40
20848;BMP180;10584;50.854;12.902;2024-01-16T16:18:01;97151.00;;;-0.40
20848;BMP180;10584;50.854;12.902;2024-01-16T16:23:23;97148.00;;;-0.50
20848;BMP180;10584;50.854;12.902;2024-01-16T16:28:45;97146.00;;;-0.50
20848;BMP180;10584;50.854;12.902;2024-01-16T16:34:11;97162.00;;;-0.60
20848;BMP180;10584;50.854;12.902;2024-01-16T16:39:36;97166.00;;;-0.50
20848;BMP180;10584;50.854;12.902;2024-01-16T16:44:57;97165.00;;;-0.40
20848;BMP180;10584;50.854;12.902;2024-01-16T16:50:20;97171.00;;;-0.50
20848;BMP180;10584;50.854;12.902;2024-01-16T16:55:42;97171.00;;;-0.40
20848;BMP180;10584;50.854;12.902;2024-01-16T17:01:04;97176.00;;;-0.40
20848;BMP180;10584;50.854;12.902;2024-01-16T17:06:25;97169.00;;;-0.50
20848;BMP180;10584;50.854;12.902;2024-01-16T17:11:47;97170.00;;;-0.50
20848;BMP180;10584;50.854;12.902;2024-01-16T17:17:09;97174.00;;;-0.40
20848;BMP180;10584;50.854;12.902;2024-01-16T17:22:32;97178.00;;;-0.50
20848;BMP180;10584;50.854;12.902;2024-01-16T17:27:54;97168.00;;;-0.60
20848;BMP180;10584;50.854;12.902;2024-01-16T17:33:16;97179.00;;;-0.60
20848;BMP180;10584;50.854;12.902;2024-01-16T17:38:41;97167.00;;;-0.60
20848;BMP180;10584;50.854;12.902;2024-01-16T17:44:02;97173.00;;;-0.70
20848;BMP180;10584;50.854;12.902;2024-01-16T17:49:25;97174.00;;;-0.70
20848;BMP180;10584;50.854;12.902;2024-01-16T17:54:47;97180.00;;;-0.80
20848;BMP180;10584;50.854;12.902;2024-01-16T18:00:09;97184.00;;;-0.70
20848;BMP180;10584;50.854;12.902;2024-01-16T18:05:31;97180.00;;;-0.90
20848;BMP180;10584;50.854;12.902;2024-01-16T18:10:54;97178.00;;;-1.00
20848;BMP180;10584;50.854;12.902;2024-01-16T18:16:16;97189.00;;;-0.90
20848;BMP180;10584;50.854;12.902;2024-01-16T18:21:38;97177.00;;;-1.10
20848;BMP180;10584;50.854;12.902;2024-01-16T18:27:00;97185.00;;;-1.20
20848;BMP180;10584;50.854;12.902;2024-01-16T18:32:21;97176.00;;;-1.40
20848;BMP180;10584;50.854;12.902;2024-01-16T18:37:43;97173.00;;;-1.50
20848;BMP180;10584;50.854;12.902;2024-01-16T18:43:04;97177.00;;;-1.50
20848;BMP180;10584;50.854;12.902;2024-01-16T18:48:29;97177.00;;;-1.50
20848;BMP180;10584;50.854;12.902;2024-01-16T18:53:51;97179.00;;;-1.60
20848;BMP180;10584;50.854;12.902;2024-01-16T18:59:13;97176.00;;;-1.80
20848;BMP180;10584;50.854;12.902;2024-01-16T19:04:36;97182.00;;;-1.80
20848;BMP180;10584;50.854;12.902;2024-01-16T19:10:01;97181.00;;;-1.90
20848;BMP180;10584;50.854;12.902;2024-01-16T19:15:23;97163.00;;;-2.10
20848;BMP180;10584;50.854;12.902;2024-01-16T19:20:44;97162.00;;;-2.30
20848;BMP180;10584;50.854;12.902;2024-01-16T19:26:06;97164.00;;;-2.30
20848;BMP180;10584;50.854;12.902;2024-01-16T19:31:29;97161.00;;;-2.30
20848;BMP180;10584;50.854;12.902;2024-01-16T19:36:55;97160.00;;;-2.40
20848;BMP180;10584;50.854;12.902;2024-01-16T19:42:17;97139.00;;;-2.40
20848;BMP180;10584;50.854;12.902;2024-01-16T19:47:39;97147.00;;;-2.50
20848;BMP180;10584;50.854;12.902;2024-01-16T19:53:02;97141.00;;;-2.60
20848;BMP180;10584;50.854;12.902;2024-01-16T19:58:24;97145.00;;;-2.60
20848;BMP180;10584;50.854;12.902;2024-01-16T20:03:45;97148.00;;;-2.70
20848;BMP180;10584;50.854;12.902;2024-01-16T20:09:07;97138.00;;;-2.80
20848;BMP180;10584;50.854;12.902;2024-01-16T20:14:29;97140.00;;;-2.90
20848;BMP180;10584;50.854;12.902;2024-01-16T20:19:50;97139.00;;;-2.90
20848;BMP180;10584;50.854;12.902;2024-01-16T20:25:12;97129.00;;;-3.00
20848;BMP180;10584;50.854;12.902;2024-01-16T20:30:34;97144.00;;;-3.00
20848;BMP180;10584;50.854;12.902;2024-01-16T20:35:57;97141.00;;;-3.20
20848;BMP180;10584;50.854;12.902;2024-01-16T20:41:18;97139.00;;;-3.20
20848;BMP180;10584;50.854;12.902;2024-01-16T20:46:40;97130.00;;;-3.30
20848;BMP180;10584;50.854;12.902;2024-01-16T20:52:02;97130.00;;;-3.40
20848;BMP180;10584;50.854;12.902;2024-01-16T20:57:24;97127.00;;;-3.50
20848;BMP180;10584;50.854;12.902;2024-01-16T21:02:45;97111.00;;;-3.60
20848;BMP180;10584;50.854;12.902;2024-01-16T21:08:07;97113.00;;;-3.80
20848;BMP180;10584;50.854;12.902;2024-01-16T21:13:31;97121.00;;;-3.90
20848;BMP180;10584;50.854;12.902;2024-01-16T21:18:53;97127.00;;;-3.90
20848;BMP180;10584;50.854;12.902;2024-01-16T21:24:14;97110.00;;;-4.00
20848;BMP180;10584;50.854;12.902;2024-01-16T21:29:36;97111.00;;;-4.20
20848;BMP180;10584;50.854;12.902;2024-01-16T21:35:00;97115.00;;;-4.20
20848;BMP180;10584;50.854;12.902;2024-01-16T21:40:22;97103.00;;;-4.30
20848;BMP180;10584;50.854;12.902;2024-01-16T21:45:43;97101.00;;;-4.40
20848;BMP180;10584;50.854;12.902;2024-01-16T21:51:05;97103.00;;;-4.50
20848;BMP180;10584;50.854;12.902;2024-01-16T21:56:27;97094.00;;;-4.50
20848;BMP180;10584;50.854;12.902;2024-01-16T22:01:49;97092.00;;;-4.70
20848;BMP180;10584;50.854;12.902;2024-01-16T22:07:10;97098.00;;;-4.90
20848;BMP180;10584;50.854;12.902;2024-01-16T22:12:32;97095.00;;;-5.00
20848;BMP180;10584;50.854;12.902;2024-01-16T22:17:54;97092.00;;;-5.10
20848;BMP180;10584;50.854;12.902;2024-01-16T22:23:18;97097.00;;;-5.20
20848;BMP180;10584;50.854;12.902;2024-01-16T22:28:42;97086.00;;;-5.30
20848;BMP180;10584;50.854;12.902;2024-01-16T22:34:07;97066.00;;;-5.30
20848;BMP180;10584;50.854;12.902;2024-01-16T22:39:29;97073.00;;;-5.40
20848;BMP180;10584;50.854;12.902;2024-01-16T22:44:50;97044.00;;;-5.50
20848;BMP180;10584;50.854;12.902;2024-01-16T22:50:12;97032.00;;;-5.50
20848;BMP180;10584;50.854;12.902;2024-01-16T22:55:34;97023.00;;;-5.60
20848;BMP180;10584;50.854;12.902;2024-01-16T23:00:55;97003.00;;;-5.60
20848;BMP180;10584;50.854;12.902;2024-01-16T23:06:17;96993.00;;;-5.60
20848;BMP180;10584;50.854;12.902;2024-01-16T23:11:42;96972.00;;;-5.70
20848;BMP180;10584;50.854;12.902;2024-01-16T23:17:04;96975.00;;;-5.80
20848;BMP180;10584;50.854;12.902;2024-01-16T23:22:25;96972.00;;;-6.00
20848;BMP180;10584;50.854;12.902;2024-01-16T23:27:47;96946.00;;;-6.10
20848;BMP180;10584;50.854;12.902;2024-01-16T23:33:10;96943.00;;;-6.20
20848;BMP180;10584;50.854;12.902;2024-01-16T23:38:32;96950.00;;;-6.30
20848;BMP180;10584;50.854;12.902;2024-01-16T23:43:57;96965.00;;;-6.40
20848;BMP180;10584;50.854;12.902;2024-01-16T23:49:19;96954.00;;;-6.50
20848;BMP180;10584;50.854;12.902;2024-01-16T23:54:42;96936.00;;;-6.70
